Time;durP1;ratioP1;P1;durP2;ratioP2;P2;SDS_P1;SDS_P2;PMS_P1;PMS_P2;Temp;Humidity;BMP_temperature;BMP_pressure;BME280_temperature;BME280_humidity;BME280_pressure;Samples;Min_cycle;Max_cycle;Signal;HPM_P1;HPM_P2
2023/08/21 00:02:01;;;;;;;6.00;4.90;;;;;;;;;;5011034;28;20234;-84
2023/08/21 00:04:28;;;;;;;10.48;5.07;;;;;;;;;;5011321;28;20283;-84
2023/08/21 00:06:55;;;;;;;8.25;4.93;;;;;;;;;;5010792;28;20231;-84
2023/08/21 00:09:22;;;;;;;13.70;5.47;;;;;;;;;;4998988;28;20215;-84
2023/08/21 00:11:49;;;;;;;5.80;5.20;;;;;;;;;;5006831;28;20218;-84
2023/08/21 00:14:16;;;;;;;5.85;5.00;;;;;;;;;;5011287;28;20231;-84
2023/08/21 00:16:43;;;;;;;6.03;5.43;;;;;;;;;;5017301;28;20230;-84
2023/08/21 00:19:12;;;;;;;5.13;4.63;;;;;;;;;;5012223;28;20214;-84
2023/08/21 00:21:39;;;;;;;6.88;5.20;;;;;;;;;;5010713;28;20227;-84
2023/08/21 00:24:06;;;;;;;8.98;5.40;;;;;;;;;;5008998;28;20231;-85
2023/08/21 00:26:33;;;;;;;8.82;5.57;;;;;;;;;;5007359;28;20234;-84
2023/08/21 00:29:00;;;;;;;8.40;5.20;;;;;;;;;;5010689;28;20208;-84
2023/08/21 00:31:27;;;;;;;6.20;5.60;;;;;;;;;;5010699;28;20230;-84
2023/08/21 00:33:54;;;;;;;9.38;4.93;;;;;;;;;;5011063;28;20234;-84
2023/08/21 00:36:23;;;;;;;5.65;4.97;;;;;;;;;;5018323;28;20231;-84
2023/08/21 00:38:50;;;;;;;6.57;4.65;;;;;;;;;;5011183;28;20207;-84
2023/08/21 00:41:17;;;;;;;5.78;5.10;;;;;;;;;;5010161;28;20238;-84
2023/08/21 00:43:44;;;;;;;6.63;5.63;;;;;;;;;;5010951;28;20227;-85
2023/08/21 00:46:11;;;;;;;6.05;5.30;;;;;;;;;;5010277;28;20732;-84
2023/08/21 00:48:39;;;;;;;5.78;4.85;;;;;;;;;;5010849;28;20211;-84
2023/08/21 00:51:07;;;;;;;6.45;5.32;;;;;;;;;;5010454;28;20235;-84
2023/08/21 00:53:36;;;;;;;6.25;5.20;;;;;;;;;;5013735;28;20224;-84
2023/08/21 00:56:03;;;;;;;7.07;5.43;;;;;;;;;;5015111;28;20233;-84
2023/08/21 00:58:30;;;;;;;7.53;5.78;;;;;;;;;;5008950;28;20657;-84
2023/08/21 01:00:58;;;;;;;5.55;4.68;;;;;;;;;;5010831;28;20227;-84
2023/08/21 01:03:25;;;;;;;6.22;5.13;;;;;;;;;;5013751;28;20231;-84
2023/08/21 01:05:52;;;;;;;6.35;5.10;;;;;;;;;;5013922;28;20243;-84
2023/08/21 01:08:23;;;;;;;7.00;5.13;;;;;;;;;;5003007;28;20211;-84
2023/08/21 01:10:54;;;;;;;5.55;5.05;;;;;;;;;;5014072;28;20231;-85
2023/08/21 01:13:25;;;;;;;5.75;5.15;;;;;;;;;;5012973;28;20230;-84
2023/08/21 01:15:52;;;;;;;5.85;5.35;;;;;;;;;;5010287;28;20242;-84
2023/08/21 01:18:20;;;;;;;6.68;5.20;;;;;;;;;;5013924;28;20211;-84
2023/08/21 01:20:47;;;;;;;8.20;4.95;;;;;;;;;;5021157;28;20241;-84
2023/08/21 01:23:28;;;;;;;6.45;5.60;;;;;;;;;;5001959;28;20235;-84
2023/08/21 01:25:55;;;;;;;7.05;5.07;;;;;;;;;;5013851;28;20254;-84
2023/08/21 01:28:22;;;;;;;6.68;5.03;;;;;;;;;;5006167;28;20203;-85
2023/08/21 01:30:50;;;;;;;5.60;5.10;;;;;;;;;;5013848;28;20575;-84
2023/08/21 01:33:17;;;;;;;5.03;4.63;;;;;;;;;;5025076;28;20242;-84
2023/08/21 01:35:45;;;;;;;6.85;5.03;;;;;;;;;;5013144;28;20238;-85
2023/08/21 01:38:12;;;;;;;5.57;5.07;;;;;;;;;;5013985;28;20337;-85
2023/08/21 01:40:41;;;;;;;5.60;5.07;;;;;;;;;;5008025;28;20231;-84
2023/08/21 01:43:08;;;;;;;6.13;5.22;;;;;;;;;;5013664;28;20246;-84
2023/08/21 01:45:35;;;;;;;8.52;5.55;;;;;;;;;;5013690;28;20238;-84
2023/08/21 01:48:02;;;;;;;6.40;5.80;;;;;;;;;;5013654;28;20207;-84
2023/08/21 01:50:29;;;;;;;6.10;5.25;;;;;;;;;;5017851;28;20235;-85
2023/08/21 01:52:56;;;;;;;6.20;5.43;;;;;;;;;;5010318;28;20235;-84
2023/08/21 01:55:24;;;;;;;8.15;5.35;;;;;;;;;;5005044;28;20700;-84
2023/08/21 01:57:52;;;;;;;5.43;4.93;;;;;;;;;;5014930;28;20200;-84
2023/08/21 02:00:19;;;;;;;6.55;4.93;;;;;;;;;;5004782;28;20246;-84
2023/08/21 02:02:46;;;;;;;5.88;4.82;;;;;;;;;;5013738;28;20211;-84
2023/08/21 02:05:13;;;;;;;7.30;4.93;;;;;;;;;;5011366;28;20235;-85
2023/08/21 02:07:40;;;;;;;8.00;5.13;;;;;;;;;;5007345;28;20584;-84
2023/08/21 02:10:08;;;;;;;6.80;4.45;;;;;;;;;;5020453;28;20229;-85
2023/08/21 02:12:35;;;;;;;4.97;4.47;;;;;;;;;;4998574;28;20218;-84
2023/08/21 02:15:04;;;;;;;5.15;4.60;;;;;;;;;;4996706;28;20232;-86
2023/08/21 02:17:32;;;;;;;5.43;4.85;;;;;;;;;;5013476;28;20604;-84
2023/08/21 02:19:59;;;;;;;5.80;5.25;;;;;;;;;;5013322;28;20211;-84
2023/08/21 02:22:26;;;;;;;8.48;5.32;;;;;;;;;;5005190;28;20235;-84
2023/08/21 02:24:53;;;;;;;7.82;6.50;;;;;;;;;;5049030;22;20226;-86
2023/08/21 02:27:20;;;;;;;8.07;5.80;;;;;;;;;;5032051;28;20234;-86
2023/08/21 02:29:47;;;;;;;11.02;5.07;;;;;;;;;;5032779;28;20218;-86
2023/08/21 02:32:16;;;;;;;5.40;4.85;;;;;;;;;;5031841;28;20615;-86
2023/08/21 02:34:43;;;;;;;6.72;4.60;;;;;;;;;;5032729;28;20659;-86
2023/08/21 02:37:10;;;;;;;5.72;4.82;;;;;;;;;;5022032;28;20243;-86
2023/08/21 02:39:37;;;;;;;5.93;5.35;;;;;;;;;;5018050;28;20207;-86
2023/08/21 02:42:04;;;;;;;8.07;5.40;;;;;;;;;;5031372;28;20230;-86
2023/08/21 02:44:31;;;;;;;9.25;5.20;;;;;;;;;;5020456;28;20234;-86
2023/08/21 02:46:58;;;;;;;6.68;5.50;;;;;;;;;;5021913;28;20229;-86
2023/08/21 02:49:26;;;;;;;8.40;5.53;;;;;;;;;;5028972;28;20253;-86
2023/08/21 02:51:54;;;;;;;7.03;6.32;;;;;;;;;;5019248;28;20704;-86
2023/08/21 02:54:21;;;;;;;6.18;5.43;;;;;;;;;;5027545;28;20234;-86
2023/08/21 02:56:49;;;;;;;8.15;5.05;;;;;;;;;;5019267;28;20231;-86
2023/08/21 02:59:16;;;;;;;8.38;5.75;;;;;;;;;;5029263;28;20268;-86
2023/08/21 03:01:43;;;;;;;6.45;5.85;;;;;;;;;;5031593;28;20222;-86
2023/08/21 03:04:10;;;;;;;7.28;5.57;;;;;;;;;;5024687;28;20231;-86
2023/08/21 03:06:38;;;;;;;7.38;4.88;;;;;;;;;;5030475;28;20960;-86
2023/08/21 03:09:05;;;;;;;6.57;5.03;;;;;;;;;;5031362;28;20589;-86
2023/08/21 03:11:32;;;;;;;6.05;4.93;;;;;;;;;;5031197;28;20230;-86
2023/08/21 03:13:59;;;;;;;7.70;4.85;;;;;;;;;;5031207;28;20223;-86
2023/08/21 03:16:26;;;;;;;4.65;4.25;;;;;;;;;;5013931;28;20223;-86
2023/08/21 03:18:57;;;;;;;6.47;3.92;;;;;;;;;;5020353;28;20249;-86
2023/08/21 03:21:24;;;;;;;5.95;4.38;;;;;;;;;;5030638;28;20234;-86
2023/08/21 03:23:55;;;;;;;7.47;5.10;;;;;;;;;;5030835;28;20235;-86
2023/08/21 03:26:22;;;;;;;5.50;4.70;;;;;;;;;;5029521;28;20241;-86
2023/08/21 03:28:49;;;;;;;6.47;4.55;;;;;;;;;;5031730;28;20218;-86
2023/08/21 03:31:16;;;;;;;5.38;4.65;;;;;;;;;;5014785;28;20231;-85
2023/08/21 03:33:44;;;;;;;5.60;5.10;;;;;;;;;;5025927;28;20730;-85
2023/08/21 03:36:11;;;;;;;5.90;5.30;;;;;;;;;;5030622;28;20238;-86
2023/08/21 03:38:38;;;;;;;4.90;4.40;;;;;;;;;;5027001;28;20595;-86
2023/08/21 03:41:06;;;;;;;6.95;4.28;;;;;;;;;;5030827;28;20226;-86
2023/08/21 03:43:33;;;;;;;6.90;4.80;;;;;;;;;;5030424;28;20210;-86
2023/08/21 03:46:00;;;;;;;8.25;5.32;;;;;;;;;;5028776;28;20281;-86
2023/08/21 03:48:27;;;;;;;8.05;5.70;;;;;;;;;;5027521;28;20210;-86
2023/08/21 03:50:54;;;;;;;5.32;4.82;;;;;;;;;;5029212;28;20245;-86
2023/08/21 03:53:21;;;;;;;8.38;4.50;;;;;;;;;;5030948;28;20234;-86
2023/08/21 03:55:48;;;;;;;5.20;3.75;;;;;;;;;;5030760;28;20233;-86
2023/08/21 03:58:17;;;;;;;4.32;3.92;;;;;;;;;;5030385;28;20229;-86
2023/08/21 04:00:44;;;;;;;7.30;4.22;;;;;;;;;;5030888;28;20231;-86
2023/08/21 04:03:11;;;;;;;5.60;4.55;;;;;;;;;;5030988;28;20707;-86
2023/08/21 04:05:38;;;;;;;6.05;4.18;;;;;;;;;;5030879;28;20233;-86
2023/08/21 04:08:05;;;;;;;6.90;4.10;;;;;;;;;;5030948;28;20599;-86
2023/08/21 04:10:33;;;;;;;5.80;4.20;;;;;;;;;;5030189;28;20234;-86
2023/08/21 04:13:00;;;;;;;4.53;3.65;;;;;;;;;;5030324;28;20202;-86
2023/08/21 04:15:28;;;;;;;6.18;3.80;;;;;;;;;;5029085;28;20249;-86
2023/08/21 04:17:56;;;;;;;6.07;4.13;;;;;;;;;;5030040;28;20215;-86
2023/08/21 04:20:23;;;;;;;5.47;4.97;;;;;;;;;;5030016;28;20251;-86
2023/08/21 04:22:50;;;;;;;7.43;4.93;;;;;;;;;;5030567;28;20214;-85
2023/08/21 04:25:17;;;;;;;6.00;5.00;;;;;;;;;;5029619;28;20237;-84
2023/08/21 04:27:44;;;;;;;5.43;4.93;;;;;;;;;;5030225;28;20695;-84
2023/08/21 04:30:12;;;;;;;5.72;4.90;;;;;;;;;;5024686;28;20632;-84
2023/08/21 04:32:40;;;;;;;6.93;5.20;;;;;;;;;;5019047;28;20505;-84
2023/08/21 04:35:09;;;;;;;5.68;5.15;;;;;;;;;;5021849;28;20231;-84
2023/08/21 04:37:36;;;;;;;8.88;5.78;;;;;;;;;;5022652;28;20215;-84
2023/08/21 04:40:03;;;;;;;5.55;5.05;;;;;;;;;;5024913;28;20604;-84
2023/08/21 04:42:30;;;;;;;7.20;5.32;;;;;;;;;;5026430;28;20669;-86
2023/08/21 04:44:57;;;;;;;7.53;4.80;;;;;;;;;;5030136;28;20225;-84
2023/08/21 04:47:25;;;;;;;5.68;5.05;;;;;;;;;;5029322;28;20257;-84
2023/08/21 04:49:54;;;;;;;5.75;5.25;;;;;;;;;;5025956;28;20249;-84
2023/08/21 04:52:21;;;;;;;6.35;5.32;;;;;;;;;;5028760;28;20237;-84
2023/08/21 04:54:49;;;;;;;4.90;4.40;;;;;;;;;;5029680;28;20226;-84
2023/08/21 04:57:17;;;;;;;6.63;5.43;;;;;;;;;;5029062;28;20234;-84
2023/08/21 04:59:44;;;;;;;5.32;4.82;;;;;;;;;;5026653;28;20211;-84
2023/08/21 05:02:11;;;;;;;7.30;4.43;;;;;;;;;;5023297;28;20245;-84
2023/08/21 05:04:38;;;;;;;6.90;4.47;;;;;;;;;;5019890;28;20237;-84
2023/08/21 05:07:07;;;;;;;8.85;5.30;;;;;;;;;;5021597;28;20233;-84
2023/08/21 05:09:34;;;;;;;10.73;5.50;;;;;;;;;;5027555;28;20233;-86
2023/08/21 05:12:01;;;;;;;8.18;4.97;;;;;;;;;;5029639;28;20230;-86
2023/08/21 05:14:28;;;;;;;8.73;4.93;;;;;;;;;;5024284;28;20234;-86
2023/08/21 05:16:55;;;;;;;8.65;4.82;;;;;;;;;;5021660;28;20234;-86
2023/08/21 05:19:22;;;;;;;10.43;4.63;;;;;;;;;;5027876;28;20227;-86
2023/08/21 05:21:49;;;;;;;8.40;5.30;;;;;;;;;;5023993;28;20230;-86
2023/08/21 05:24:17;;;;;;;7.47;5.55;;;;;;;;;;5029109;28;20732;-86
2023/08/21 05:26:44;;;;;;;10.65;5.70;;;;;;;;;;5019711;28;20228;-86
2023/08/21 05:29:11;;;;;;;8.95;5.60;;;;;;;;;;5016686;28;20869;-86
2023/08/21 05:31:39;;;;;;;6.13;5.43;;;;;;;;;;5019003;28;20230;-85
2023/08/21 05:34:06;;;;;;;7.10;4.80;;;;;;;;;;5022558;28;20233;-86
2023/08/21 05:36:33;;;;;;;7.30;5.88;;;;;;;;;;5026803;28;20223;-87
2023/08/21 05:39:00;;;;;;;10.10;5.95;;;;;;;;;;5018609;28;20238;-87
2023/08/21 05:41:28;;;;;;;7.18;5.43;;;;;;;;;;5017694;28;20245;-86
2023/08/21 05:43:55;;;;;;;12.07;6.28;;;;;;;;;;5023452;28;20239;-85
2023/08/21 05:46:22;;;;;;;9.30;6.10;;;;;;;;;;5020056;28;20253;-81
2023/08/21 05:48:49;;;;;;;8.93;6.68;;;;;;;;;;5024645;28;20210;-79
2023/08/21 05:51:16;;;;;;;8.80;7.15;;;;;;;;;;5018544;28;20238;-80
2023/08/21 05:53:43;;;;;;;11.60;8.40;;;;;;;;;;5025746;28;20230;-79
2023/08/21 05:56:10;;;;;;;12.40;10.07;;;;;;;;;;5024676;28;20235;-80
2023/08/21 05:58:39;;;;;;;13.23;9.60;;;;;;;;;;5021401;28;20218;-80
2023/08/21 06:01:06;;;;;;;13.68;10.60;;;;;;;;;;5021487;28;20231;-80
2023/08/21 06:03:33;;;;;;;12.98;10.65;;;;;;;;;;5024039;28;20214;-80
2023/08/21 06:06:00;;;;;;;15.32;11.30;;;;;;;;;;5024555;28;20253;-79
2023/08/21 06:08:27;;;;;;;11.32;9.98;;;;;;;;;;5022711;28;20685;-79
2023/08/21 06:10:54;;;;;;;14.50;10.25;;;;;;;;;;5024401;28;20226;-80
2023/08/21 06:13:21;;;;;;;12.65;10.43;;;;;;;;;;5023685;28;20240;-79
2023/08/21 06:15:49;;;;;;;13.32;10.55;;;;;;;;;;5020932;28;20254;-79
2023/08/21 06:18:16;;;;;;;11.63;9.95;;;;;;;;;;5021196;28;20600;-79
2023/08/21 06:20:44;;;;;;;14.00;10.90;;;;;;;;;;5027544;28;20234;-80
2023/08/21 06:23:12;;;;;;;13.55;10.75;;;;;;;;;;5022073;28;20212;-81
2023/08/21 06:25:39;;;;;;;11.77;10.50;;;;;;;;;;5020657;28;20239;-80
2023/08/21 06:28:06;;;;;;;12.55;10.05;;;;;;;;;;5021034;28;20211;-81
2023/08/21 06:30:33;;;;;;;14.88;11.27;;;;;;;;;;5023403;28;20231;-84
2023/08/21 06:33:01;;;;;;;11.55;10.35;;;;;;;;;;5018833;28;20207;-80
2023/08/21 06:35:29;;;;;;;17.10;11.20;;;;;;;;;;5025188;28;20244;-80
2023/08/21 06:37:56;;;;;;;15.35;11.10;;;;;;;;;;5022588;28;20203;-80
2023/08/21 06:40:23;;;;;;;15.48;11.60;;;;;;;;;;5023891;28;20243;-80
2023/08/21 06:42:50;;;;;;;12.13;10.50;;;;;;;;;;5020461;28;20572;-80
2023/08/21 06:45:18;;;;;;;13.85;10.35;;;;;;;;;;5020894;28;20282;-81
2023/08/21 06:47:45;;;;;;;12.45;10.02;;;;;;;;;;5023891;28;20235;-80
2023/08/21 06:50:13;;;;;;;10.38;9.27;;;;;;;;;;5028381;28;20211;-81
2023/08/21 06:52:41;;;;;;;12.80;9.55;;;;;;;;;;5019952;28;20206;-81
2023/08/21 06:55:08;;;;;;;10.40;8.70;;;;;;;;;;5024779;28;20223;-81
2023/08/21 06:57:37;;;;;;;11.70;9.32;;;;;;;;;;5022798;28;20566;-80
2023/08/21 07:00:05;;;;;;;12.60;9.18;;;;;;;;;;5022988;28;20646;-81
2023/08/21 07:02:32;;;;;;;9.73;8.35;;;;;;;;;;5021765;28;20301;-80
2023/08/21 07:04:59;;;;;;;9.70;8.70;;;;;;;;;;5020916;28;20235;-81
2023/08/21 07:07:28;;;;;;;9.93;8.93;;;;;;;;;;5020918;28;20234;-81
2023/08/21 07:09:55;;;;;;;9.02;7.88;;;;;;;;;;5024313;28;20206;-81
2023/08/21 07:12:23;;;;;;;9.35;7.70;;;;;;;;;;5023328;28;20231;-80
2023/08/21 07:14:50;;;;;;;8.90;8.00;;;;;;;;;;5023885;28;20577;-81
2023/08/21 07:17:17;;;;;;;9.57;7.70;;;;;;;;;;5022487;28;20237;-81
2023/08/21 07:19:44;;;;;;;8.95;7.75;;;;;;;;;;5023691;28;20210;-81
2023/08/21 07:22:11;;;;;;;10.38;7.85;;;;;;;;;;5023552;28;20233;-80
2023/08/21 07:24:39;;;;;;;7.97;7.18;;;;;;;;;;5019987;28;20227;-82
2023/08/21 07:27:06;;;;;;;12.07;7.78;;;;;;;;;;5019260;28;20238;-82
2023/08/21 07:29:33;;;;;;;8.40;7.32;;;;;;;;;;5022113;28;20211;-82
2023/08/21 07:32:00;;;;;;;9.02;7.00;;;;;;;;;;5023313;28;20226;-82
2023/08/21 07:34:27;;;;;;;8.45;7.32;;;;;;;;;;5021819;28;20336;-82
2023/08/21 07:36:55;;;;;;;8.48;7.35;;;;;;;;;;5019403;28;20592;-82
2023/08/21 07:39:22;;;;;;;8.63;7.57;;;;;;;;;;5020974;28;20678;-81
2023/08/21 07:41:52;;;;;;;9.00;7.30;;;;;;;;;;5022894;28;20226;-81
2023/08/21 07:44:20;;;;;;;10.20;7.47;;;;;;;;;;5023700;28;20235;-82
2023/08/21 07:46:47;;;;;;;8.13;7.28;;;;;;;;;;5015658;28;20238;-82
2023/08/21 07:49:14;;;;;;;8.30;7.55;;;;;;;;;;5021110;28;20210;-83
2023/08/21 07:51:41;;;;;;;8.70;7.22;;;;;;;;;;5020217;28;20324;-83
2023/08/21 07:54:08;;;;;;;9.95;6.82;;;;;;;;;;5014531;28;20681;-82
2023/08/21 07:56:35;;;;;;;8.15;6.88;;;;;;;;;;5020631;28;20227;-82
2023/08/21 07:59:04;;;;;;;10.30;7.03;;;;;;;;;;5023666;28;20230;-81
2023/08/21 08:01:32;;;;;;;10.10;7.05;;;;;;;;;;5020947;28;20715;-82
2023/08/21 08:04:00;;;;;;;10.55;7.28;;;;;;;;;;5022128;28;20713;-82
2023/08/21 08:06:27;;;;;;;10.18;7.10;;;;;;;;;;5020652;28;20234;-83
2023/08/21 08:08:54;;;;;;;9.20;7.97;;;;;;;;;;5019690;28;20207;-83
2023/08/21 08:11:21;;;;;;;9.02;7.30;;;;;;;;;;5018489;28;20238;-83
2023/08/21 08:13:48;;;;;;;9.20;7.70;;;;;;;;;;5019827;28;20266;-88
2023/08/21 08:16:17;;;;;;;10.02;7.63;;;;;;;;;;5017305;28;20234;-88
2023/08/21 08:18:44;;;;;;;7.72;6.65;;;;;;;;;;5017583;28;20207;-89
2023/08/21 08:21:12;;;;;;;7.78;6.65;;;;;;;;;;5017913;28;20234;-88
2023/08/21 08:23:39;;;;;;;7.95;7.07;;;;;;;;;;5044465;23;20227;-84
2023/08/21 08:26:08;;;;;;;7.10;6.30;;;;;;;;;;5023815;28;20242;-84
2023/08/21 08:28:35;;;;;;;7.90;6.75;;;;;;;;;;5021314;28;20236;-85
2023/08/21 08:31:03;;;;;;;10.07;6.88;;;;;;;;;;5020888;28;20249;-84
2023/08/21 08:33:31;;;;;;;7.85;7.05;;;;;;;;;;5021889;28;20204;-84
2023/08/21 08:35:58;;;;;;;10.35;7.07;;;;;;;;;;5002652;28;20227;-84
2023/08/21 08:38:25;;;;;;;7.13;6.43;;;;;;;;;;4994634;28;20212;-84
2023/08/21 08:40:52;;;;;;;7.00;5.90;;;;;;;;;;5003040;28;20685;-84
2023/08/21 08:43:20;;;;;;;7.65;6.15;;;;;;;;;;5003543;28;20207;-84
2023/08/21 08:45:48;;;;;;;8.05;7.13;;;;;;;;;;4999212;28;20238;-84
2023/08/21 08:48:15;;;;;;;6.90;6.20;;;;;;;;;;5000227;28;20216;-85
2023/08/21 08:50:44;;;;;;;7.82;6.78;;;;;;;;;;4999271;28;20246;-85
2023/08/21 08:53:11;;;;;;;8.02;6.22;;;;;;;;;;5000077;28;20208;-85
2023/08/21 08:55:38;;;;;;;7.50;6.60;;;;;;;;;;5000951;28;20311;-85
2023/08/21 08:58:06;;;;;;;11.75;6.13;;;;;;;;;;5002803;28;20218;-84
2023/08/21 09:00:33;;;;;;;7.18;6.03;;;;;;;;;;5000707;28;20227;-86
2023/08/21 09:03:00;;;;;;;6.97;5.95;;;;;;;;;;4999100;28;20199;-86
2023/08/21 09:05:27;;;;;;;7.15;6.43;;;;;;;;;;5002033;28;20242;-87
2023/08/21 09:08:10;;;;;;;9.77;6.68;;;;;;;;;;5001456;28;20208;-86
2023/08/21 09:10:38;;;;;;;7.85;6.28;;;;;;;;;;5000905;28;20235;-86
2023/08/21 09:13:10;;;;;;;7.20;6.30;;;;;;;;;;5003589;28;20657;-86
2023/08/21 09:15:37;;;;;;;8.20;6.47;;;;;;;;;;5000657;28;20235;-86
2023/08/21 09:18:04;;;;;;;7.40;6.00;;;;;;;;;;5004470;28;20232;-86
2023/08/21 09:20:36;;;;;;;7.18;6.18;;;;;;;;;;4993434;28;20231;-86
2023/08/21 09:23:05;;;;;;;6.85;6.25;;;;;;;;;;5001820;28;20204;-82
2023/08/21 09:25:36;;;;;;;7.93;5.90;;;;;;;;;;5003289;28;20247;-82
2023/08/21 09:28:05;;;;;;;6.95;6.35;;;;;;;;;;5006758;28;20211;-82
2023/08/21 09:30:44;;;;;;;8.93;6.50;;;;;;;;;;5004812;28;20231;-83
2023/08/21 09:33:11;;;;;;;6.88;6.28;;;;;;;;;;5003530;28;20204;-82
2023/08/21 09:35:39;;;;;;;9.77;6.18;;;;;;;;;;5004314;28;20240;-83
2023/08/21 09:38:07;;;;;;;7.70;6.05;;;;;;;;;;5006702;28;20214;-82
2023/08/21 09:40:34;;;;;;;8.55;6.00;;;;;;;;;;5004654;28;20223;-83
2023/08/21 09:43:05;;;;;;;7.05;5.75;;;;;;;;;;5002982;28;20226;-83
2023/08/21 09:45:35;;;;;;;5.93;5.30;;;;;;;;;;5004104;28;20266;-83
2023/08/21 09:48:03;;;;;;;6.70;5.80;;;;;;;;;;5006128;28;20262;-83
2023/08/21 09:50:30;;;;;;;5.68;5.18;;;;;;;;;;5003759;28;20239;-83
2023/08/21 09:52:58;;;;;;;6.10;5.10;;;;;;;;;;5003526;28;20200;-84
2023/08/21 09:55:29;;;;;;;5.53;5.03;;;;;;;;;;5001921;28;20243;-82
2023/08/21 09:57:58;;;;;;;6.53;5.05;;;;;;;;;;4999622;28;20204;-83
2023/08/21 10:00:26;;;;;;;4.97;4.35;;;;;;;;;;5002797;28;20235;-83
2023/08/21 10:02:55;;;;;;;5.00;4.60;;;;;;;;;;5007202;28;20211;-83
2023/08/21 10:05:22;;;;;;;5.32;4.63;;;;;;;;;;4998210;28;20732;-83
2023/08/21 10:07:50;;;;;;;6.25;4.25;;;;;;;;;;4996293;28;20227;-83
2023/08/21 10:10:18;;;;;;;5.55;4.38;;;;;;;;;;5005345;28;20581;-83
2023/08/21 10:12:46;;;;;;;5.45;4.70;;;;;;;;;;5002113;28;20220;-83
2023/08/21 10:15:14;;;;;;;5.22;4.38;;;;;;;;;;5012862;28;20231;-83
2023/08/21 10:17:41;;;;;;;4.75;3.72;;;;;;;;;;5005187;28;20263;-83
2023/08/21 10:20:09;;;;;;;6.10;4.03;;;;;;;;;;5006823;28;20211;-83
2023/08/21 10:22:40;;;;;;;4.43;4.03;;;;;;;;;;5005490;28;20215;-83
2023/08/21 10:25:16;;;;;;;5.43;3.95;;;;;;;;;;5002079;28;20235;-83
2023/08/21 10:27:43;;;;;;;4.63;3.67;;;;;;;;;;5004124;28;20591;-83
2023/08/21 10:30:15;;;;;;;4.85;3.80;;;;;;;;;;5004144;28;20567;-83
2023/08/21 10:32:46;;;;;;;5.10;4.05;;;;;;;;;;5002984;28;20203;-83
2023/08/21 10:35:16;;;;;;;3.67;3.38;;;;;;;;;;5007863;28;20223;-83
2023/08/21 10:37:57;;;;;;;3.90;3.45;;;;;;;;;;5003128;28;20214;-82
2023/08/21 10:40:25;;;;;;;4.10;3.40;;;;;;;;;;5001888;28;20242;-83
2023/08/21 10:42:52;;;;;;;3.50;3.15;;;;;;;;;;5006183;28;20211;-83
2023/08/21 10:45:20;;;;;;;6.10;3.15;;;;;;;;;;5005986;28;20229;-82
2023/08/21 10:47:49;;;;;;;4.70;3.38;;;;;;;;;;5002622;28;20226;-83
2023/08/21 10:50:16;;;;;;;4.85;2.90;;;;;;;;;;5001494;28;20214;-83
2023/08/21 10:52:45;;;;;;;2.83;2.63;;;;;;;;;;4999937;28;20266;-83
2023/08/21 10:55:12;;;;;;;3.00;2.55;;;;;;;;;;5007556;28;20226;-83
2023/08/21 10:57:40;;;;;;;3.08;2.25;;;;;;;;;;5007738;28;20213;-83
2023/08/21 11:00:09;;;;;;;5.38;3.15;;;;;;;;;;5005634;28;20222;-83
2023/08/21 11:02:37;;;;;;;3.40;2.42;;;;;;;;;;4996069;28;20204;-84
2023/08/21 11:05:05;;;;;;;2.92;2.22;;;;;;;;;;5004760;28;20230;-84
2023/08/21 11:07:32;;;;;;;5.65;2.10;;;;;;;;;;4997308;28;20220;-84
2023/08/21 11:10:00;;;;;;;1.70;1.60;;;;;;;;;;5003269;28;20199;-84
2023/08/21 11:12:27;;;;;;;1.75;1.65;;;;;;;;;;5008527;28;20314;-84
2023/08/21 11:14:54;;;;;;;1.90;1.80;;;;;;;;;;5008711;28;20310;-85
2023/08/21 11:17:23;;;;;;;1.90;1.80;;;;;;;;;;5000888;28;20235;-85
2023/08/21 11:19:51;;;;;;;1.85;1.75;;;;;;;;;;5004588;28;20207;-85
2023/08/21 11:22:19;;;;;;;4.20;2.33;;;;;;;;;;5004992;28;20254;-85
2023/08/21 11:24:46;;;;;;;2.17;1.73;;;;;;;;;;5005617;28;20728;-85
2023/08/21 11:27:14;;;;;;;2.20;2.00;;;;;;;;;;5023765;28;20235;-85
2023/08/21 11:29:41;;;;;;;3.50;2.13;;;;;;;;;;5024061;28;20271;-86
2023/08/21 11:32:12;;;;;;;2.72;2.42;;;;;;;;;;5024968;28;20310;-86
2023/08/21 11:34:39;;;;;;;2.83;2.40;;;;;;;;;;5025310;28;20219;-86
2023/08/21 11:37:07;;;;;;;3.50;2.60;;;;;;;;;;5027373;28;20242;-85
2023/08/21 11:39:41;;;;;;;3.22;2.25;;;;;;;;;;5026295;28;20217;-85
2023/08/21 11:42:10;;;;;;;3.00;2.70;;;;;;;;;;5021646;28;20251;-85
2023/08/21 11:44:41;;;;;;;3.35;3.15;;;;;;;;;;5019952;28;20278;-85
2023/08/21 11:47:08;;;;;;;3.53;3.20;;;;;;;;;;5003576;28;20609;-85
2023/08/21 11:49:37;;;;;;;3.65;3.03;;;;;;;;;;5004196;28;20207;-85
2023/08/21 11:52:05;;;;;;;3.20;2.90;;;;;;;;;;5000459;28;20227;-84
2023/08/21 11:54:35;;;;;;;3.45;3.15;;;;;;;;;;4996141;28;20597;-84
2023/08/21 11:57:05;;;;;;;3.67;2.80;;;;;;;;;;5002445;28;20222;-85
2023/08/21 11:59:32;;;;;;;4.28;2.70;;;;;;;;;;5000987;28;20199;-83
2023/08/21 12:01:59;;;;;;;3.00;2.78;;;;;;;;;;5000885;28;20253;-83
2023/08/21 12:04:26;;;;;;;3.10;2.80;;;;;;;;;;5001157;28;20219;-84
2023/08/21 12:06:53;;;;;;;4.25;2.75;;;;;;;;;;5001334;28;20300;-84
2023/08/21 12:09:20;;;;;;;2.90;2.60;;;;;;;;;;5003633;28;20688;-84
2023/08/21 12:11:49;;;;;;;3.08;2.50;;;;;;;;;;4998468;28;20720;-84
2023/08/21 12:14:16;;;;;;;4.10;2.47;;;;;;;;;;5002087;28;20732;-83
2023/08/21 12:16:44;;;;;;;3.95;2.67;;;;;;;;;;5001659;28;20313;-84
2023/08/21 12:19:11;;;;;;;2.75;2.55;;;;;;;;;;5001884;28;20203;-84
2023/08/21 12:21:39;;;;;;;2.60;2.40;;;;;;;;;;5001191;28;20229;-84
2023/08/21 12:24:06;;;;;;;2.58;2.35;;;;;;;;;;5001390;28;20236;-84
2023/08/21 12:26:33;;;;;;;2.63;2.20;;;;;;;;;;4999265;28;20603;-84
2023/08/21 12:29:02;;;;;;;4.53;2.63;;;;;;;;;;5000963;28;20215;-84
2023/08/21 12:31:30;;;;;;;3.45;2.75;;;;;;;;;;4999565;28;20249;-83
2023/08/21 12:33:57;;;;;;;2.85;2.50;;;;;;;;;;5002088;28;20250;-84
2023/08/21 12:36:24;;;;;;;2.88;2.58;;;;;;;;;;5000249;28;20234;-83
2023/08/21 12:38:51;;;;;;;2.53;2.33;;;;;;;;;;5000944;28;20211;-84
2023/08/21 12:41:18;;;;;;;2.60;2.40;;;;;;;;;;5001437;28;20231;-84
2023/08/21 12:43:45;;;;;;;4.38;2.35;;;;;;;;;;5002271;28;20207;-83
2023/08/21 12:46:14;;;;;;;2.83;2.50;;;;;;;;;;5000043;28;20239;-83
2023/08/21 12:48:41;;;;;;;2.50;2.20;;;;;;;;;;5002312;28;20672;-84
2023/08/21 12:51:08;;;;;;;3.30;2.33;;;;;;;;;;5002857;28;20613;-84
2023/08/21 12:53:35;;;;;;;3.50;2.30;;;;;;;;;;5002687;28;20297;-84
2023/08/21 12:56:02;;;;;;;2.30;2.10;;;;;;;;;;5002886;28;20241;-84
2023/08/21 12:58:30;;;;;;;2.63;2.40;;;;;;;;;;5009608;28;20229;-83
2023/08/21 13:00:57;;;;;;;4.05;2.25;;;;;;;;;;5004741;28;20231;-84
2023/08/21 13:03:26;;;;;;;3.42;2.50;;;;;;;;;;5004529;28;20677;-84
2023/08/21 13:05:53;;;;;;;2.92;2.60;;;;;;;;;;5005700;28;20231;-84
2023/08/21 13:08:20;;;;;;;4.03;2.30;;;;;;;;;;5007628;28;20206;-84
2023/08/21 13:10:47;;;;;;;3.05;2.63;;;;;;;;;;5004967;28;20234;-84
2023/08/21 13:13:14;;;;;;;3.75;2.33;;;;;;;;;;5007452;28;20206;-84
2023/08/21 13:15:44;;;;;;;2.53;2.33;;;;;;;;;;5007022;28;20231;-85
2023/08/21 13:18:11;;;;;;;2.97;2.65;;;;;;;;;;5006857;28;20307;-84
2023/08/21 13:20:39;;;;;;;2.47;2.28;;;;;;;;;;5007360;28;20285;-84
2023/08/21 13:23:06;;;;;;;2.53;2.20;;;;;;;;;;5007234;28;20588;-84
2023/08/21 13:25:34;;;;;;;3.45;2.50;;;;;;;;;;5006709;28;20245;-84
2023/08/21 13:28:03;;;;;;;3.58;2.42;;;;;;;;;;5005082;28;20212;-83
2023/08/21 13:30:31;;;;;;;2.75;2.55;;;;;;;;;;5008990;28;20257;-84
2023/08/21 13:32:58;;;;;;;2.63;2.42;;;;;;;;;;5005671;28;20214;-84
2023/08/21 13:35:25;;;;;;;4.60;2.45;;;;;;;;;;5005612;28;20243;-83
2023/08/21 13:37:54;;;;;;;5.78;3.03;;;;;;;;;;5003348;28;20723;-83
2023/08/21 13:40:21;;;;;;;3.55;2.30;;;;;;;;;;5002758;28;20211;-83
2023/08/21 13:42:48;;;;;;;3.95;2.40;;;;;;;;;;5003756;28;20215;-84
2023/08/21 13:45:16;;;;;;;2.30;2.20;;;;;;;;;;5006361;28;20258;-82
2023/08/21 13:47:43;;;;;;;2.47;2.10;;;;;;;;;;5005045;28;20210;-83
2023/08/21 13:50:11;;;;;;;3.13;2.50;;;;;;;;;;5003240;28;20218;-83
2023/08/21 13:52:39;;;;;;;4.68;2.60;;;;;;;;;;5005088;28;20219;-83
2023/08/21 13:55:08;;;;;;;3.55;2.40;;;;;;;;;;5008499;28;20230;-84
2023/08/21 13:57:36;;;;;;;2.90;2.60;;;;;;;;;;5013551;28;20249;-83
2023/08/21 14:00:06;;;;;;;3.05;2.20;;;;;;;;;;5006878;28;20200;-83
2023/08/21 14:02:33;;;;;;;3.15;2.50;;;;;;;;;;5011085;28;20644;-83
2023/08/21 14:05:00;;;;;;;2.00;1.90;;;;;;;;;;5003644;28;20235;-83
2023/08/21 14:07:27;;;;;;;1.88;1.70;;;;;;;;;;5005548;28;20234;-82
2023/08/21 14:09:54;;;;;;;2.10;1.67;;;;;;;;;;5003939;28;20234;-83
2023/08/21 14:12:22;;;;;;;3.65;1.95;;;;;;;;;;5002068;28;20254;-83
2023/08/21 14:14:50;;;;;;;4.18;2.25;;;;;;;;;;5004297;28;20231;-84
2023/08/21 14:17:17;;;;;;;2.15;1.92;;;;;;;;;;5005639;28;20237;-83
2023/08/21 14:19:44;;;;;;;2.03;1.90;;;;;;;;;;5007712;28;20242;-83
2023/08/21 14:22:11;;;;;;;3.80;2.45;;;;;;;;;;5002258;28;20240;-84
2023/08/21 14:24:38;;;;;;;1.67;1.58;;;;;;;;;;5033991;22;20230;-91
2023/08/21 14:27:05;;;;;;;1.92;1.73;;;;;;;;;;5023524;28;20276;-91
2023/08/21 14:29:34;;;;;;;1.80;1.70;;;;;;;;;;5034228;28;20294;-94
2023/08/21 14:32:01;;;;;;;2.95;2.10;;;;;;;;;;5028459;28;20262;-91
2023/08/21 14:34:28;;;;;;;2.20;2.00;;;;;;;;;;5024689;28;20265;-91
2023/08/21 14:36:56;;;;;;;1.77;1.65;;;;;;;;;;5019634;28;20239;-90
2023/08/21 14:39:23;;;;;;;0.90;0.90;;;;;;;;;;5031138;28;20733;-91
2023/08/21 14:41:54;;;;;;;1.50;1.40;;;;;;;;;;5021137;28;20223;-92
2023/08/21 14:44:22;;;;;;;3.05;1.13;;;;;;;;;;5026470;28;20231;-90